createdAt,value
2017-03-23T00:00:09.418Z,1002.57
2017-03-23T00:01:09.453Z,1002.59
2017-03-23T00:02:09.496Z,1002.61
2017-03-23T00:03:09.530Z,1002.61
2017-03-23T00:04:09.555Z,1002.62
2017-03-23T00:05:09.590Z,1002.63
2017-03-23T00:06:09.627Z,1002.58
2017-03-23T00:07:09.662Z,1002.65
2017-03-23T00:08:09.693Z,1002.61
2017-03-23T00:09:09.736Z,1002.63
2017-03-23T00:10:09.763Z,1002.56
2017-03-23T00:11:09.795Z,1002.51
2017-03-23T00:12:09.831Z,1002.54
2017-03-23T00:13:09.865Z,1002.46
2017-03-23T00:14:09.901Z,1002.46
2017-03-23T00:15:09.934Z,1002.46
2017-03-23T00:16:09.975Z,1002.46
2017-03-23T00:17:10.003Z,1002.43
2017-03-23T00:18:10.038Z,1002.4
2017-03-23T00:19:10.080Z,1002.43
2017-03-23T00:20:10.115Z,1002.4
2017-03-23T00:21:10.153Z,1002.34
2017-03-23T00:22:10.175Z,1002.36
2017-03-23T00:23:10.224Z,1002.39
2017-03-23T00:24:10.273Z,1002.37
2017-03-23T00:25:10.287Z,1002.33
2017-03-23T00:26:10.313Z,1002.31
2017-03-23T00:27:10.354Z,1002.31
2017-03-23T00:28:10.382Z,1002.35
2017-03-23T00:29:10.415Z,1002.35
2017-03-23T00:30:10.457Z,1002.31
2017-03-23T00:31:10.483Z,1002.33
2017-03-23T00:32:10.518Z,1002.32
2017-03-23T00:33:10.559Z,1002.34
2017-03-23T00:34:10.586Z,1002.36
2017-03-23T00:35:10.621Z,1002.37
2017-03-23T00:36:10.658Z,1002.42
2017-03-23T00:37:10.688Z,1002.45
2017-03-23T00:38:10.731Z,1002.43
2017-03-23T00:39:10.765Z,1002.44
2017-03-23T00:40:10.800Z,1002.42
2017-03-23T00:41:10.833Z,1002.43
2017-03-23T00:42:10.859Z,1002.42
2017-03-23T00:43:10.894Z,1002.43
2017-03-23T00:44:10.936Z,1002.45
2017-03-23T00:45:10.997Z,1002.41
2017-03-23T00:46:11.004Z,1002.42
2017-03-23T00:47:11.038Z,1002.46
2017-03-23T00:48:11.072Z,1002.46
2017-03-23T00:49:11.099Z,1002.42
2017-03-23T00:50:11.142Z,1002.44
2017-03-23T00:51:11.168Z,1002.41
2017-03-23T00:52:11.209Z,1002.42
2017-03-23T00:53:11.236Z,1002.37
2017-03-23T00:54:11.281Z,1002.41
2017-03-23T00:55:11.305Z,1002.38
2017-03-23T00:56:11.338Z,1002.33
2017-03-23T00:57:11.382Z,1002.32
2017-03-23T00:58:11.407Z,1002.3
2017-03-23T00:59:11.441Z,1002.25
2017-03-23T01:00:11.483Z,1002.28
2017-03-23T01:01:11.510Z,1002.27
2017-03-23T01:02:11.545Z,1002.25
2017-03-23T01:03:11.587Z,1002.24
2017-03-23T01:04:11.614Z,1002.3
2017-03-23T01:05:11.656Z,1002.25
2017-03-23T01:06:11.681Z,1002.23
2017-03-23T01:07:11.716Z,1002.21
2017-03-23T01:08:11.757Z,1002.19
2017-03-23T01:09:11.793Z,1002.16
2017-03-23T01:10:11.819Z,1002.2
2017-03-23T01:11:11.861Z,1002.17
2017-03-23T01:12:11.896Z,1002.2
2017-03-23T01:13:11.920Z,1002.24
2017-03-23T01:14:11.955Z,1002.2
2017-03-23T01:15:11.998Z,1002.15
2017-03-23T01:16:12.025Z,1002.08
2017-03-23T01:17:12.065Z,1002.08
2017-03-23T01:18:12.093Z,1002.07
2017-03-23T01:19:12.135Z,1002.02
2017-03-23T01:20:12.169Z,1002.01
2017-03-23T01:21:12.194Z,1002.08
2017-03-23T01:22:12.237Z,1002.07
2017-03-23T01:23:12.273Z,1002.08
2017-03-23T01:24:12.305Z,1002
2017-03-23T01:25:12.332Z,1002.05
2017-03-23T01:26:12.374Z,1002.02
2017-03-23T01:27:12.400Z,1002.04
2017-03-23T01:28:12.434Z,1002.06
2017-03-23T01:29:12.476Z,1002.06
2017-03-23T01:30:12.509Z,1002.07
2017-03-23T01:31:12.545Z,1002.14
2017-03-23T01:32:12.572Z,1002.11
2017-03-23T01:33:12.613Z,1002.1
2017-03-23T01:34:12.648Z,1002.05
2017-03-23T01:35:12.673Z,1001.97
2017-03-23T01:36:12.708Z,1001.99
2017-03-23T01:37:12.750Z,1002.01
2017-03-23T01:38:12.777Z,1001.96
2017-03-23T01:39:12.822Z,1001.96
2017-03-23T01:40:12.844Z,1001.93
2017-03-23T01:41:12.888Z,1001.9
2017-03-23T01:42:12.922Z,1001.91
2017-03-23T01:43:12.947Z,1001.86
2017-03-23T01:44:12.989Z,1001.84
2017-03-23T01:45:13.024Z,1001.84
2017-03-23T01:46:13.058Z,1001.78
2017-03-23T01:47:13.092Z,1001.84
2017-03-23T01:48:13.118Z,1001.76
2017-03-23T01:49:13.161Z,1001.75
2017-03-23T01:50:13.185Z,1001.75
2017-03-23T01:51:13.229Z,1001.75
2017-03-23T01:52:13.262Z,1001.71
2017-03-23T01:53:13.289Z,1001.71
2017-03-23T01:54:13.330Z,1001.68
2017-03-23T01:55:13.356Z,1001.67
2017-03-23T01:56:13.400Z,1001.66
2017-03-23T01:57:13.424Z,1001.69
2017-03-23T01:58:13.458Z,1001.65
2017-03-23T01:59:13.501Z,1001.67
2017-03-23T02:00:13.528Z,1001.66
2017-03-23T02:01:13.561Z,1001.7
2017-03-23T02:02:13.602Z,1001.69
2017-03-23T02:03:13.636Z,1001.65
2017-03-23T02:04:13.664Z,1001.68
2017-03-23T02:05:13.704Z,1001.66
2017-03-23T02:06:13.740Z,1001.69
2017-03-23T02:07:13.773Z,1001.66
2017-03-23T02:08:13.799Z,1001.66
2017-03-23T02:09:13.832Z,1001.71
2017-03-23T02:10:13.875Z,1001.75
2017-03-23T02:11:13.902Z,1001.78
2017-03-23T02:12:13.934Z,1001.86
2017-03-23T02:13:13.977Z,1001.87
2017-03-23T02:14:14.003Z,1001.9
2017-03-23T02:15:14.046Z,1001.97
2017-03-23T02:16:14.070Z,1001.99
2017-03-23T02:17:14.105Z,1001.99
2017-03-23T02:18:14.147Z,1001.95
2017-03-23T02:19:14.180Z,1001.95
2017-03-23T02:20:14.215Z,1001.95
2017-03-23T02:21:14.242Z,1001.96
2017-03-23T02:22:14.284Z,1001.99
2017-03-23T02:23:14.308Z,1001.99
2017-03-23T02:24:14.350Z,1001.96
2017-03-23T02:25:14.378Z,1001.93
2017-03-23T02:26:14.420Z,1001.92
2017-03-23T02:27:14.454Z,1001.89
2017-03-23T02:28:14.479Z,1001.89
2017-03-23T02:29:14.522Z,1001.89
2017-03-23T02:30:14.548Z,1001.83
2017-03-23T02:31:14.581Z,1001.83
2017-03-23T02:32:14.615Z,1001.8
2017-03-23T02:33:14.658Z,1001.78
2017-03-23T02:34:14.691Z,1001.73
2017-03-23T02:35:14.725Z,1001.7
2017-03-23T02:36:14.758Z,1001.73
2017-03-23T02:37:14.785Z,1001.73
2017-03-23T02:38:14.829Z,1001.7
2017-03-23T02:39:14.854Z,1001.67
2017-03-23T02:40:14.897Z,1001.67
2017-03-23T02:41:14.922Z,1001.62
2017-03-23T02:42:14.965Z,1001.61
2017-03-23T02:43:14.990Z,1001.57
2017-03-23T02:44:15.032Z,1001.48
2017-03-23T02:45:15.065Z,1001.49
2017-03-23T02:46:15.099Z,1001.57
2017-03-23T02:47:15.124Z,1001.53
2017-03-23T02:48:15.159Z,1001.56
2017-03-23T02:49:15.200Z,1001.55
2017-03-23T02:50:15.227Z,1001.59
2017-03-23T02:51:15.261Z,1001.66
2017-03-23T02:52:15.302Z,1001.69
2017-03-23T02:53:15.328Z,1001.72
2017-03-23T02:54:15.362Z,1001.73
2017-03-23T02:55:15.403Z,1001.77
2017-03-23T02:56:15.437Z,1001.84
2017-03-23T02:57:15.463Z,1001.85
2017-03-23T02:58:15.505Z,1001.87
2017-03-23T02:59:15.529Z,1001.86
2017-03-23T03:00:15.565Z,1001.84
2017-03-23T03:01:15.598Z,1001.93
2017-03-23T03:02:15.633Z,1001.88
2017-03-23T03:03:15.666Z,1001.94
2017-03-23T03:04:15.707Z,1001.9
2017-03-23T03:05:15.735Z,1001.91
2017-03-23T03:06:15.769Z,1001.97
2017-03-23T03:07:15.809Z,1001.93
2017-03-23T03:08:15.835Z,1001.91
2017-03-23T03:09:15.869Z,1001.87
2017-03-23T03:10:15.911Z,1001.86
2017-03-23T03:11:15.936Z,1001.84
2017-03-23T03:12:15.971Z,1001.86
2017-03-23T03:13:16.005Z,1001.86
2017-03-23T03:14:16.046Z,1001.84
2017-03-23T03:15:16.073Z,1001.87
2017-03-23T03:16:16.115Z,1001.84
2017-03-23T03:17:16.141Z,1001.8
2017-03-23T03:18:16.174Z,1001.87
2017-03-23T03:19:16.207Z,1001.88
2017-03-23T03:20:16.251Z,1001.89
2017-03-23T03:21:16.275Z,1001.91
2017-03-23T03:22:16.317Z,1001.89
2017-03-23T03:23:16.343Z,1001.88
2017-03-23T03:24:16.387Z,1001.86
2017-03-23T03:25:16.411Z,1001.86
2017-03-23T03:26:16.446Z,1001.87
2017-03-23T03:27:16.490Z,1001.88
2017-03-23T03:28:16.521Z,1001.86
2017-03-23T03:29:16.554Z,1001.88
2017-03-23T03:30:16.582Z,1001.88
2017-03-23T03:31:16.623Z,1001.93
2017-03-23T03:32:16.647Z,1001.89
2017-03-23T03:33:16.691Z,1001.87
2017-03-23T03:34:16.716Z,1001.88
2017-03-23T03:35:16.750Z,1001.9
2017-03-23T03:36:16.791Z,1001.93
2017-03-23T03:37:16.817Z,1001.93
2017-03-23T03:38:16.850Z,1001.92
2017-03-23T03:39:16.888Z,1001.89
2017-03-23T03:40:16.918Z,1001.91
2017-03-23T03:41:16.953Z,1001.84
2017-03-23T03:42:16.986Z,1001.89
2017-03-23T03:43:17.019Z,1001.91
2017-03-23T03:44:17.054Z,1001.88
2017-03-23T03:45:17.087Z,1001.87
2017-03-23T03:46:17.121Z,1001.89
2017-03-23T03:47:17.164Z,1001.87
2017-03-23T03:48:17.189Z,1001.91
2017-03-23T03:49:17.231Z,1001.86
2017-03-23T03:50:17.265Z,1001.84
2017-03-23T03:51:17.299Z,1001.86
2017-03-23T03:52:17.343Z,1001.82
2017-03-23T03:53:17.358Z,1001.79
2017-03-23T03:54:17.392Z,1001.77
2017-03-23T03:55:17.434Z,1001.8
2017-03-23T03:56:17.458Z,1001.8
2017-03-23T03:57:17.503Z,1001.78
2017-03-23T03:58:17.527Z,1001.81
2017-03-23T03:59:17.569Z,1001.81
2017-03-23T04:00:17.596Z,1001.82
2017-03-23T04:01:17.638Z,1001.81
2017-03-23T04:02:17.670Z,1001.77
2017-03-23T04:03:17.697Z,1001.76
2017-03-23T04:04:17.739Z,1001.78
2017-03-23T04:05:17.801Z,1001.75
2017-03-23T04:06:17.798Z,1001.75
2017-03-23T04:07:17.833Z,1001.79
2017-03-23T04:08:17.867Z,1001.82
2017-03-23T04:09:17.907Z,1001.84
2017-03-23T04:10:17.934Z,1001.84
2017-03-23T04:11:17.970Z,1001.83
2017-03-23T04:12:18.011Z,1001.88
2017-03-23T04:13:18.037Z,1001.9
2017-03-23T04:14:18.079Z,1001.87
2017-03-23T04:15:18.115Z,1001.91
2017-03-23T04:16:18.139Z,1001.84
2017-03-23T04:17:18.180Z,1001.92
2017-03-23T04:18:18.218Z,1001.9
2017-03-23T04:19:18.241Z,1001.9
2017-03-23T04:20:18.275Z,1001.86
2017-03-23T04:21:18.309Z,1001.89
2017-03-23T04:22:18.343Z,1001.93
2017-03-23T04:23:18.376Z,1001.9
2017-03-23T04:24:18.410Z,1001.86
2017-03-23T04:25:18.454Z,1001.85
2017-03-23T04:26:18.480Z,1001.91
2017-03-23T04:27:18.519Z,1001.87
2017-03-23T04:28:18.546Z,1001.92
2017-03-23T04:29:18.581Z,1001.91
2017-03-23T04:30:18.623Z,1001.95
2017-03-23T04:31:18.649Z,1001.95
2017-03-23T04:32:18.682Z,1001.98
2017-03-23T04:33:18.723Z,1002.03
2017-03-23T04:34:18.749Z,1002
2017-03-23T04:35:18.783Z,1002.03
2017-03-23T04:36:18.826Z,1002.03
2017-03-23T04:37:18.861Z,1002.02
2017-03-23T04:38:18.894Z,1002.01
2017-03-23T04:39:18.919Z,1002.01
2017-03-23T04:40:18.953Z,1001.98
2017-03-23T04:41:18.988Z,1002
2017-03-23T04:42:19.028Z,1002
2017-03-23T04:43:19.055Z,1002
2017-03-23T04:44:19.089Z,1002
2017-03-23T04:45:19.130Z,1002.02
2017-03-23T04:46:19.165Z,1002
2017-03-23T04:47:19.199Z,1002
2017-03-23T04:48:19.224Z,1001.97
2017-03-23T04:49:19.264Z,1001.96
2017-03-23T04:50:19.292Z,1001.95
2017-03-23T04:51:19.334Z,1001.92
2017-03-23T04:52:19.368Z,1001.9
2017-03-23T04:53:19.402Z,1001.88
2017-03-23T04:54:19.435Z,1001.91
2017-03-23T04:55:19.470Z,1001.88
2017-03-23T04:56:19.495Z,1001.91
2017-03-23T04:57:19.528Z,1001.89
2017-03-23T04:58:19.563Z,1001.89
2017-03-23T04:59:19.605Z,1001.87
2017-03-23T05:00:19.636Z,1001.86
2017-03-23T05:01:19.664Z,1001.9
2017-03-23T05:02:19.706Z,1001.91
2017-03-23T05:03:19.732Z,1001.84
2017-03-23T05:04:19.773Z,1001.87
2017-03-23T05:05:19.799Z,1001.87
2017-03-23T05:06:19.833Z,1001.85
2017-03-23T05:07:19.866Z,1001.83
2017-03-23T05:08:19.901Z,1001.84
2017-03-23T05:09:19.942Z,1001.83
2017-03-23T05:10:19.970Z,1001.8
2017-03-23T05:11:20.010Z,1001.81
2017-03-23T05:12:20.035Z,1001.76
2017-03-23T05:13:20.069Z,1001.83
2017-03-23T05:14:20.113Z,1001.77
2017-03-23T05:15:20.137Z,1001.8
2017-03-23T05:16:20.179Z,1001.81
2017-03-23T05:17:20.204Z,1001.84
2017-03-23T05:18:20.238Z,1001.83
2017-03-23T05:19:20.280Z,1001.83
2017-03-23T05:20:20.314Z,1001.79
2017-03-23T05:21:20.347Z,1001.84
2017-03-23T05:22:20.372Z,1001.86
2017-03-23T05:23:20.406Z,1001.83
2017-03-23T05:24:20.441Z,1001.83
2017-03-23T05:25:20.483Z,1001.84
2017-03-23T05:26:20.508Z,1001.85
2017-03-23T05:27:20.549Z,1001.83
2017-03-23T05:28:20.577Z,1001.82
2017-03-23T05:29:20.612Z,1001.8
2017-03-23T05:30:20.652Z,1001.77
2017-03-23T05:31:20.686Z,1001.79
2017-03-23T05:32:20.710Z,1001.81
2017-03-23T05:33:20.751Z,1001.8
2017-03-23T05:34:20.787Z,1001.84
2017-03-23T05:35:20.820Z,1001.85
2017-03-23T05:36:20.846Z,1001.84
2017-03-23T05:37:20.888Z,1001.85
2017-03-23T05:38:20.913Z,1001.85
2017-03-23T05:39:20.947Z,1001.94
2017-03-23T05:40:20.989Z,1001.91
2017-03-23T05:41:21.023Z,1001.96
2017-03-23T05:42:21.048Z,1001.96
2017-03-23T05:43:21.082Z,1001.96
2017-03-23T05:44:21.115Z,1001.98
2017-03-23T05:45:21.156Z,1002
2017-03-23T05:46:21.183Z,1001.99
2017-03-23T05:47:21.218Z,1002.01
2017-03-23T05:48:21.259Z,1002.01
2017-03-23T05:49:21.293Z,1002.04
2017-03-23T05:50:21.327Z,1002.04
2017-03-23T05:51:21.361Z,1002.09
2017-03-23T05:52:21.388Z,1002.08
2017-03-23T05:53:21.429Z,1002.09
2017-03-23T05:54:21.462Z,1002.1
2017-03-23T05:55:21.492Z,1002.13
2017-03-23T05:56:21.531Z,1002.11
2017-03-23T05:57:21.565Z,1002.14
2017-03-23T05:58:21.598Z,1002.14
2017-03-23T05:59:21.624Z,1002.14
2017-03-23T06:00:21.667Z,1002.13
2017-03-23T06:01:21.700Z,1002.13
2017-03-23T06:02:21.726Z,1002.15
2017-03-23T06:03:21.760Z,1002.19
2017-03-23T06:04:21.796Z,1002.15
2017-03-23T06:05:21.830Z,1002.16
2017-03-23T06:06:21.863Z,1002.19
2017-03-23T06:07:21.897Z,1002.21
2017-03-23T06:08:21.940Z,1002.22
2017-03-23T06:09:21.964Z,1002.2
2017-03-23T06:10:21.999Z,1002.26
2017-03-23T06:11:22.033Z,1002.19
2017-03-23T06:12:22.067Z,1002.23
2017-03-23T06:13:22.101Z,1002.28
2017-03-23T06:14:22.144Z,1002.24
2017-03-23T06:15:22.177Z,1002.2
2017-03-23T06:16:22.204Z,1002.24
2017-03-23T06:17:22.245Z,1002.21
2017-03-23T06:18:22.279Z,1002.27
2017-03-23T06:19:22.305Z,1002.21
2017-03-23T06:20:22.339Z,1002.23
2017-03-23T06:21:22.374Z,1002.26
2017-03-23T06:22:22.416Z,1002.24
2017-03-23T06:23:22.442Z,1002.28
2017-03-23T06:24:22.475Z,1002.25
2017-03-23T06:25:22.517Z,1002.29
2017-03-23T06:26:22.619Z,1002.29
2017-03-23T06:27:22.578Z,1002.31
2017-03-23T06:28:22.619Z,1002.34
2017-03-23T06:29:22.645Z,1002.33
2017-03-23T06:30:22.680Z,1002.32
2017-03-23T06:31:22.715Z,1002.35
2017-03-23T06:32:22.748Z,1002.35
2017-03-23T06:33:22.790Z,1002.36
2017-03-23T06:34:22.824Z,1002.36
2017-03-23T06:35:22.849Z,1002.32
2017-03-23T06:36:22.884Z,1002.35
2017-03-23T06:37:23.038Z,1002.33
2017-03-23T06:38:22.961Z,1002.37
2017-03-23T06:39:22.994Z,1002.34
2017-03-23T06:40:23.029Z,1002.34
2017-03-23T06:41:23.062Z,1002.32
2017-03-23T06:42:23.089Z,1002.31
2017-03-23T06:43:23.132Z,1002.36
2017-03-23T06:44:23.158Z,1002.34
2017-03-23T06:45:23.200Z,1002.33
2017-03-23T06:46:23.233Z,1002.35
2017-03-23T06:47:23.260Z,1002.33
2017-03-23T06:48:23.304Z,1002.41
2017-03-23T06:49:23.330Z,1002.41
2017-03-23T06:50:23.370Z,1002.45
2017-03-23T06:51:23.405Z,1002.46
2017-03-23T06:52:23.882Z,1002.44
2017-03-23T06:53:23.465Z,1002.46
2017-03-23T06:54:23.508Z,1002.42
2017-03-23T06:55:23.543Z,1002.5
2017-03-23T06:56:23.569Z,1002.46
2017-03-23T06:57:23.606Z,1002.45
2017-03-23T06:58:23.637Z,1002.47
2017-03-23T06:59:23.673Z,1002.41
2017-03-23T07:00:23.710Z,1002.49
2017-03-23T07:01:23.756Z,1002.46
2017-03-23T07:02:23.778Z,1002.44
2017-03-23T07:03:23.812Z,1002.5
2017-03-23T07:04:23.846Z,1002.48
2017-03-23T07:05:23.888Z,1002.54
2017-03-23T07:06:23.915Z,1002.54
2017-03-23T07:07:24.045Z,1002.54
2017-03-23T07:08:23.985Z,1002.55
2017-03-23T07:09:24.020Z,1002.56
2017-03-23T07:10:24.063Z,1002.51
2017-03-23T07:11:24.099Z,1002.5
2017-03-23T07:12:24.134Z,1002.51
2017-03-23T07:13:24.162Z,1002.43
2017-03-23T07:14:24.196Z,1002.39
2017-03-23T07:15:24.239Z,1002.49
2017-03-23T07:16:24.267Z,1002.39
2017-03-23T07:17:24.303Z,1002.41
2017-03-23T07:18:24.338Z,1002.4
2017-03-23T07:19:24.380Z,1002.43
2017-03-23T07:20:24.419Z,1002.45
2017-03-23T07:21:24.445Z,1002.48
2017-03-23T07:22:24.489Z,1002.55
2017-03-23T07:23:24.543Z,1002.51
2017-03-23T07:24:24.560Z,1002.54
2017-03-23T07:25:24.590Z,1002.58
2017-03-23T07:26:24.625Z,1002.6
2017-03-23T07:27:24.664Z,1002.61
2017-03-23T07:28:24.696Z,1002.58
2017-03-23T07:29:24.733Z,1002.6
2017-03-23T07:30:24.769Z,1002.55
2017-03-23T07:31:24.813Z,1002.54
2017-03-23T07:32:24.849Z,1002.52
2017-03-23T07:33:24.877Z,1002.53
2017-03-23T07:34:24.913Z,1002.6
2017-03-23T07:35:24.947Z,1002.59
2017-03-23T07:36:24.992Z,1002.64
2017-03-23T07:37:25.023Z,1002.65
2017-03-23T07:38:25.056Z,1002.73
2017-03-23T07:39:25.100Z,1002.66
2017-03-23T07:40:25.137Z,1002.66
2017-03-23T07:41:25.165Z,1002.66
2017-03-23T07:42:25.200Z,1002.61
2017-03-23T07:43:25.237Z,1002.68
2017-03-23T07:44:25.273Z,1002.68
2017-03-23T07:45:25.317Z,1002.68
2017-03-23T07:46:25.354Z,1002.75
2017-03-23T07:47:25.394Z,1002.74
2017-03-23T07:48:25.417Z,1002.73
2017-03-23T07:49:25.462Z,1002.7
2017-03-23T07:50:25.506Z,1002.7
2017-03-23T07:51:25.536Z,1002.69
2017-03-23T07:52:25.562Z,1002.7
2017-03-23T07:53:25.609Z,1002.71
2017-03-23T07:54:25.635Z,1002.65
2017-03-23T07:55:25.678Z,1002.72
2017-03-23T07:56:25.715Z,1002.69
2017-03-23T07:57:25.751Z,1002.72
2017-03-23T07:58:25.789Z,1002.67
2017-03-23T07:59:25.822Z,1002.64
2017-03-23T08:00:25.851Z,1002.62
2017-03-23T08:01:25.885Z,1002.65
2017-03-23T08:02:25.922Z,1002.77
2017-03-23T08:03:25.955Z,1002.81
2017-03-23T08:04:26.000Z,1002.86
2017-03-23T08:05:26.028Z,1002.9
2017-03-23T08:06:26.070Z,1002.89
2017-03-23T08:07:26.097Z,1002.85
2017-03-23T08:08:26.133Z,1002.8
2017-03-23T08:09:26.168Z,1002.77
2017-03-23T08:10:26.203Z,1002.75
2017-03-23T08:11:26.248Z,1002.73
2017-03-23T08:12:26.284Z,1002.75
2017-03-23T08:13:26.310Z,1002.69
2017-03-23T08:14:26.345Z,1002.76
2017-03-23T08:15:26.390Z,1002.78
2017-03-23T08:16:26.416Z,1002.81
2017-03-23T08:17:26.451Z,1002.8
2017-03-23T08:18:26.486Z,1002.79
2017-03-23T08:19:26.522Z,1002.77
2017-03-23T08:20:26.566Z,1002.78
2017-03-23T08:21:26.594Z,1002.8
2017-03-23T08:22:26.630Z,1002.77
2017-03-23T08:23:26.673Z,1002.79
2017-03-23T08:24:26.710Z,1002.76
2017-03-23T08:25:26.738Z,1002.73
2017-03-23T08:26:26.775Z,1002.75
2017-03-23T08:27:26.819Z,1002.73
2017-03-23T08:28:26.847Z,1002.76
2017-03-23T08:29:26.886Z,1002.74
2017-03-23T08:30:26.920Z,1002.71
2017-03-23T08:31:27.323Z,1002.76
2017-03-23T08:32:26.993Z,1002.74
2017-03-23T08:33:27.031Z,1002.69
2017-03-23T08:34:27.066Z,1002.68
2017-03-23T08:35:27.103Z,1002.69
2017-03-23T08:36:27.142Z,1002.67
2017-03-23T08:37:27.186Z,1002.71
2017-03-23T08:38:27.212Z,1002.68
2017-03-23T08:39:27.256Z,1002.75
2017-03-23T08:40:27.286Z,1002.74
2017-03-23T08:41:27.332Z,1002.67
2017-03-23T08:42:27.368Z,1002.64
2017-03-23T08:43:27.395Z,1002.56
2017-03-23T08:44:27.440Z,1002.56
2017-03-23T08:45:27.478Z,1002.57
2017-03-23T08:46:27.506Z,1002.5
2017-03-23T08:47:27.550Z,1002.53
2017-03-23T08:48:27.578Z,1002.54
2017-03-23T08:49:27.615Z,1002.49
2017-03-23T08:50:27.659Z,1002.49
2017-03-23T08:51:27.696Z,1002.48
2017-03-23T08:52:27.724Z,1002.47
2017-03-23T08:53:27.768Z,1002.4
2017-03-23T08:54:27.796Z,1002.33
2017-03-23T08:55:27.840Z,1002.28
2017-03-23T08:56:27.878Z,1002.29
2017-03-23T08:57:27.905Z,1002.24
2017-03-23T08:58:27.949Z,1002.2
2017-03-23T08:59:27.985Z,1002.2
2017-03-23T09:00:28.021Z,1002.22
2017-03-23T09:01:28.055Z,1002.19
2017-03-23T09:02:28.091Z,1002.21
2017-03-23T09:03:28.119Z,1002.09
2017-03-23T09:04:28.199Z,1002.13
2017-03-23T09:05:28.189Z,1002.12
2017-03-23T09:06:28.226Z,1002.1
2017-03-23T09:07:28.269Z,1001.99
2017-03-23T09:08:28.295Z,1001.98
2017-03-23T09:09:28.339Z,1001.98
2017-03-23T09:10:28.366Z,1001.98
2017-03-23T09:11:28.402Z,1002.01
2017-03-23T09:12:28.444Z,1002.08
2017-03-23T09:13:28.480Z,1002.14
2017-03-23T09:14:28.516Z,1002.21
2017-03-23T09:15:28.544Z,1002.26
2017-03-23T09:16:28.578Z,1002.29
2017-03-23T09:17:28.622Z,1002.22
2017-03-23T09:18:28.657Z,1002.21
2017-03-23T09:19:28.683Z,1002.12
2017-03-23T09:20:28.719Z,1002.12
2017-03-23T09:21:28.761Z,1002.13
2017-03-23T09:22:28.794Z,1002.14
2017-03-23T09:23:28.824Z,1002.21
2017-03-23T09:24:28.859Z,1002.23
2017-03-23T09:25:28.896Z,1002.3
2017-03-23T09:26:28.931Z,1002.39
2017-03-23T09:27:28.966Z,1002.51
2017-03-23T09:28:29.010Z,1002.51
2017-03-23T09:29:29.046Z,1002.54
2017-03-23T09:30:29.073Z,1002.49
2017-03-23T09:31:29.117Z,1002.55
2017-03-23T09:32:29.153Z,1002.51
2017-03-23T09:33:29.182Z,1002.56
2017-03-23T09:34:29.227Z,1002.58
2017-03-23T09:35:29.262Z,1002.56
2017-03-23T09:36:29.291Z,1002.64
2017-03-23T09:37:29.329Z,1002.65
2017-03-23T09:38:29.366Z,1002.66
2017-03-23T09:39:29.401Z,1002.69
2017-03-23T09:40:29.452Z,1002.72
2017-03-23T09:41:29.477Z,1002.79
2017-03-23T09:42:29.523Z,1002.82
2017-03-23T09:43:29.561Z,1002.86
2017-03-23T09:44:29.602Z,1002.92
2017-03-23T09:45:29.636Z,1002.99
2017-03-23T09:46:29.667Z,1003.04
2017-03-23T09:47:29.706Z,1003.06
2017-03-23T09:48:29.759Z,1003.03
2017-03-23T09:49:29.784Z,1003
2017-03-23T09:50:29.824Z,1003.07
2017-03-23T09:51:29.872Z,1003.03
2017-03-23T09:52:29.918Z,1003.07
2017-03-23T09:53:29.943Z,1003.09
2017-03-23T09:54:29.991Z,1003.07
2017-03-23T09:55:30.024Z,1003.09
2017-03-23T09:56:30.064Z,1003.08
2017-03-23T09:57:30.103Z,1003.1
2017-03-23T09:58:30.144Z,1003.07
2017-03-23T09:59:30.184Z,1003.04
2017-03-23T10:00:30.223Z,1003.1
2017-03-23T10:01:30.263Z,1003.11
2017-03-23T10:02:30.302Z,1003.12
2017-03-23T10:03:30.341Z,1003.09
2017-03-23T10:04:30.388Z,1003.09
2017-03-23T10:05:30.418Z,1003.07
2017-03-23T10:06:30.466Z,1003.03
2017-03-23T10:07:30.505Z,1003.06
2017-03-23T10:08:30.536Z,1003.07
2017-03-23T10:09:30.579Z,1003.07
2017-03-23T10:10:30.614Z,1003.1
2017-03-23T10:11:30.659Z,1003.12
2017-03-23T10:12:30.699Z,1003.11
2017-03-23T10:13:30.749Z,1003.11
2017-03-23T10:14:30.769Z,1003.12
2017-03-23T10:15:30.825Z,1003.12
2017-03-23T10:16:30.851Z,1003.11
2017-03-23T10:17:30.899Z,1003.15
2017-03-23T10:18:30.934Z,1003.15
2017-03-23T10:19:30.973Z,1003.1
2017-03-23T10:20:31.004Z,1003.1
2017-03-23T10:21:31.053Z,1003.09
2017-03-23T10:22:31.092Z,1003.02
2017-03-23T10:23:31.186Z,1003.02
2017-03-23T10:24:31.164Z,1003.05
2017-03-23T10:25:31.203Z,1003.07
2017-03-23T10:26:31.251Z,1003.05
2017-03-23T10:27:31.283Z,1003.07
2017-03-23T10:28:31.331Z,1003.08
2017-03-23T10:29:31.369Z,1003.04
2017-03-23T10:30:31.435Z,1003.05
2017-03-23T10:31:31.449Z,1003.02
2017-03-23T10:32:31.487Z,1003
2017-03-23T10:33:31.518Z,1002.99
2017-03-23T10:34:31.558Z,1002.93
2017-03-23T10:35:31.605Z,1002.95
2017-03-23T10:36:31.635Z,1002.91
2017-03-23T10:37:31.674Z,1002.95
2017-03-23T10:38:31.714Z,1002.94
2017-03-23T10:39:31.784Z,1002.93
2017-03-23T10:40:31.790Z,1002.89
2017-03-23T10:41:31.870Z,1002.94
2017-03-23T10:42:31.867Z,1002.93
2017-03-23T10:43:31.905Z,1002.95
2017-03-23T10:44:31.945Z,1002.88
2017-03-23T10:45:31.990Z,1002.92
2017-03-23T10:46:32.029Z,1002.92
2017-03-23T10:47:32.059Z,1002.94
2017-03-23T10:48:32.097Z,1002.91
2017-03-23T10:49:32.137Z,1002.91
2017-03-23T10:50:32.174Z,1002.86
2017-03-23T10:51:32.220Z,1002.84
2017-03-23T10:52:32.260Z,1002.84
2017-03-23T10:53:32.297Z,1002.9
2017-03-23T10:54:32.337Z,1002.91
2017-03-23T10:55:32.367Z,1002.91
2017-03-23T10:56:32.405Z,1002.89
2017-03-23T10:57:32.452Z,1002.87
2017-03-23T10:58:32.490Z,1002.87
2017-03-23T10:59:32.521Z,1002.9
2017-03-23T11:00:32.561Z,1002.86
2017-03-23T11:01:32.606Z,1002.87
2017-03-23T11:02:32.637Z,1002.9
2017-03-23T11:03:32.675Z,1002.85
2017-03-23T11:04:32.715Z,1002.87
2017-03-23T11:05:32.753Z,1002.86
2017-03-23T11:06:32.800Z,1002.87
2017-03-23T11:07:32.840Z,1002.86
2017-03-23T11:08:32.869Z,1002.85
2017-03-23T11:09:32.909Z,1002.84
2017-03-23T11:10:32.947Z,1002.84
2017-03-23T11:11:32.994Z,1002.83
2017-03-23T11:12:33.034Z,1002.85
2017-03-23T11:13:33.071Z,1002.83
2017-03-23T11:14:33.103Z,1002.85
2017-03-23T11:15:33.141Z,1002.83
2017-03-23T11:16:33.188Z,1002.85
2017-03-23T11:17:33.218Z,1002.85
2017-03-23T11:18:33.257Z,1002.82
2017-03-23T11:19:33.297Z,1002.82
2017-03-23T11:20:33.342Z,1002.84
2017-03-23T11:21:33.419Z,1002.83
2017-03-23T11:22:33.413Z,1002.81
2017-03-23T11:23:33.458Z,1002.82
2017-03-23T11:24:33.490Z,1002.79
2017-03-23T11:25:33.529Z,1002.78
2017-03-23T11:26:33.576Z,1002.75
2017-03-23T11:27:33.607Z,1002.73
2017-03-23T11:28:33.658Z,1002.78
2017-03-23T11:29:33.686Z,1002.79
2017-03-23T11:30:33.740Z,1002.8
2017-03-23T11:31:33.769Z,1002.84
2017-03-23T11:32:33.801Z,1002.79
2017-03-23T11:33:33.848Z,1002.79
2017-03-23T11:34:33.879Z,1002.79
2017-03-23T11:35:33.917Z,1002.75
2017-03-23T11:36:33.958Z,1002.8
2017-03-23T11:37:34.004Z,1002.76
2017-03-23T11:38:34.034Z,1002.75
2017-03-23T11:39:34.102Z,1002.76
2017-03-23T11:40:34.116Z,1002.77
2017-03-23T11:41:34.158Z,1002.79
2017-03-23T11:42:34.197Z,1002.8
2017-03-23T11:43:34.235Z,1002.84
2017-03-23T11:44:34.268Z,1002.84
2017-03-23T11:45:34.306Z,1002.86
2017-03-23T11:46:34.344Z,1002.86
2017-03-23T11:47:34.389Z,1002.87
2017-03-23T11:48:34.428Z,1002.87
2017-03-23T11:49:34.466Z,1002.86
2017-03-23T11:50:34.505Z,1002.89
2017-03-23T11:51:34.536Z,1002.87
2017-03-23T11:52:34.575Z,1002.87
2017-03-23T11:53:34.611Z,1002.88
2017-03-23T11:54:34.659Z,1002.91
2017-03-23T11:55:34.688Z,1002.91
2017-03-23T11:56:34.756Z,1002.95
2017-03-23T11:57:34.772Z,1002.91
2017-03-23T11:58:34.803Z,1002.88
2017-03-23T11:59:34.841Z,1002.9
2017-03-23T12:00:34.879Z,1002.91
2017-03-23T12:01:34.917Z,1002.83
2017-03-23T12:02:34.964Z,1002.8
2017-03-23T12:03:34.995Z,1002.78
2017-03-23T12:04:35.043Z,1002.77
2017-03-23T12:05:35.070Z,1002.81
2017-03-23T12:06:35.110Z,1002.76
2017-03-23T12:07:35.147Z,1002.8
2017-03-23T12:08:35.193Z,1002.79